Time;durP1;ratioP1;P1;durP2;ratioP2;P2;SDS_P1;SDS_P2;PMS_P1;PMS_P2;Temp;Humidity;BMP_temperature;BMP_pressure;BME280_temperature;BME280_humidity;BME280_pressure;Samples;Min_cycle;Max_cycle;Signal;HPM_P1;HPM_P2
2024/02/28 00:00:46;;;;;;;128.60;37.88;;;;;;;8.16;100.00;97894.25;5011361;28;20628;-60
2024/02/28 00:03:12;;;;;;;113.03;42.22;;;;;;;8.27;100.00;97894.31;5014518;28;20261;-62
2024/02/28 00:05:37;;;;;;;120.95;41.25;;;;;;;8.32;100.00;97890.00;5013926;28;20037;-59
2024/02/28 00:08:02;;;;;;;161.45;44.08;;;;;;;8.60;100.00;97891.88;5014051;28;20025;-58
2024/02/28 00:10:28;;;;;;;132.68;40.55;;;;;;;8.57;100.00;97889.25;5014240;28;20413;-59
2024/02/28 00:12:53;;;;;;;164.80;37.60;;;;;;;8.60;100.00;97894.47;5013914;28;20033;-60
2024/02/28 00:15:19;;;;;;;114.35;34.88;;;;;;;8.10;100.00;97893.38;5013660;28;20266;-59
2024/02/28 00:17:44;;;;;;;120.20;43.70;;;;;;;8.16;100.00;97896.84;5015550;28;20033;-59
2024/02/28 00:20:10;;;;;;;117.55;44.00;;;;;;;8.23;100.00;97891.72;5013585;28;20153;-61
2024/02/28 00:22:39;;;;;;;130.80;45.05;;;;;;;8.48;100.00;97890.09;5014221;28;20123;-59
2024/02/28 00:25:06;;;;;;;143.77;43.83;;;;;;;8.14;100.00;97890.81;5013096;28;20620;-60
2024/02/28 00:27:35;;;;;;;135.73;43.40;;;;;;;8.03;100.00;97895.06;5015612;28;20163;-59
2024/02/28 00:30:00;;;;;;;166.18;45.67;;;;;;;7.53;100.00;97900.78;5012819;28;20041;-59
2024/02/28 00:32:25;;;;;;;127.70;54.40;;;;;;;8.12;100.00;97892.50;5014570;28;20044;-60
2024/02/28 00:34:51;;;;;;;154.63;62.95;;;;;;;8.65;100.00;97897.09;5013689;28;20029;-59
2024/02/28 00:37:16;;;;;;;108.53;45.67;;;;;;;8.24;100.00;97898.63;5015379;28;20087;-60
2024/02/28 00:39:43;;;;;;;153.98;58.33;;;;;;;7.99;100.00;97894.19;5013981;28;20480;-60
2024/02/28 00:42:08;;;;;;;131.68;52.35;;;;;;;8.20;100.00;97898.59;5010444;28;20100;-58
2024/02/28 00:44:34;;;;;;;119.78;53.35;;;;;;;7.97;100.00;97895.88;5014153;28;20022;-60
2024/02/28 00:46:59;;;;;;;164.55;51.22;;;;;;;7.90;100.00;97896.69;5012702;28;20030;-58
2024/02/28 00:49:25;;;;;;;151.70;58.08;;;;;;;7.88;100.00;97898.44;5013289;28;20047;-58
2024/02/28 00:51:50;;;;;;;146.18;57.72;;;;;;;8.20;100.00;97896.00;5011438;28;20052;-58
2024/02/28 00:54:15;;;;;;;109.85;49.58;;;;;;;7.50;100.00;97900.75;5014860;28;20030;-58
2024/02/28 00:56:40;;;;;;;130.55;55.22;;;;;;;7.77;100.00;97899.25;5013533;28;20436;-58
2024/02/28 00:59:06;;;;;;;151.57;45.50;;;;;;;7.43;100.00;97899.00;5011755;28;20029;-62
2024/02/28 01:01:32;;;;;;;131.38;56.25;;;;;;;7.81;100.00;97892.34;5012957;28;20047;-61
2024/02/28 01:03:57;;;;;;;198.27;58.75;;;;;;;8.09;100.00;97895.06;5012770;28;20061;-58
2024/02/28 01:06:22;;;;;;;110.43;44.42;;;;;;;7.26;100.00;97898.84;5013917;28;20033;-58
2024/02/28 01:08:48;;;;;;;117.95;50.05;;;;;;;7.72;100.00;97895.72;5015118;28;20112;-58
2024/02/28 01:11:13;;;;;;;134.93;55.30;;;;;;;7.64;100.00;97890.50;5011130;28;20034;-58
2024/02/28 01:13:38;;;;;;;127.57;39.67;;;;;;;7.59;100.00;97894.78;5013166;28;20033;-60
2024/02/28 01:16:04;;;;;;;143.73;37.65;;;;;;;7.43;100.00;97897.25;5012680;28;20103;-61
2024/02/28 01:18:30;;;;;;;160.68;40.05;;;;;;;7.52;100.00;97899.06;5013943;28;20032;-59
2024/02/28 01:20:56;;;;;;;140.98;35.60;;;;;;;7.82;100.00;97897.53;5011175;28;20390;-59
2024/02/28 01:23:21;;;;;;;110.88;35.47;;;;;;;7.56;100.00;97894.78;5013426;28;20027;-58
2024/02/28 01:25:46;;;;;;;112.18;42.83;;;;;;;7.57;100.00;97901.66;5013745;28;20045;-57
2024/02/28 01:28:12;;;;;;;105.28;36.95;;;;;;;7.75;100.00;97900.94;5014026;28;20029;-59
2024/02/28 01:30:38;;;;;;;120.00;35.58;;;;;;;7.65;100.00;97897.41;5012893;28;20037;-60
2024/02/28 01:33:03;;;;;;;173.52;39.95;;;;;;;7.63;100.00;97896.56;5012169;28;20025;-59
2024/02/28 01:35:29;;;;;;;121.18;37.25;;;;;;;7.73;100.00;97892.31;5012540;28;20056;-59
2024/02/28 01:37:54;;;;;;;143.73;40.70;;;;;;;7.50;100.00;97898.16;5012891;28;20544;-59
2024/02/28 01:40:19;;;;;;;126.85;35.42;;;;;;;7.13;100.00;97895.31;5012177;28;20138;-60
2024/02/28 01:42:45;;;;;;;107.50;41.75;;;;;;;7.11;100.00;97892.69;5013535;28;20127;-60
2024/02/28 01:45:14;;;;;;;165.43;47.00;;;;;;;6.97;100.00;97891.69;5011888;28;20032;-60
2024/02/28 01:47:41;;;;;;;129.25;45.63;;;;;;;7.35;100.00;97892.91;5004084;28;20428;-59
2024/02/28 01:50:07;;;;;;;160.85;41.38;;;;;;;7.33;100.00;97897.19;5010418;28;20026;-59
2024/02/28 01:52:33;;;;;;;130.75;38.22;;;;;;;7.44;100.00;97895.56;5013183;28;20045;-60
2024/02/28 01:54:59;;;;;;;145.40;36.63;;;;;;;7.53;100.00;97900.78;5011693;28;20417;-59
2024/02/28 01:57:24;;;;;;;117.97;36.72;;;;;;;7.63;100.00;97896.56;5012451;28;20037;-61
2024/02/28 01:59:50;;;;;;;167.15;42.63;;;;;;;7.80;100.00;97900.97;5012017;28;20125;-59
2024/02/28 02:02:15;;;;;;;108.60;41.22;;;;;;;7.68;100.00;97896.56;5011854;28;20134;-58
2024/02/28 02:04:40;;;;;;;106.43;32.38;;;;;;;7.79;100.00;97907.00;5012742;28;20048;-59
2024/02/28 02:07:06;;;;;;;160.85;44.05;;;;;;;7.47;100.00;97910.22;5011528;28;20041;-57
2024/02/28 02:09:34;;;;;;;124.03;46.08;;;;;;;7.58;100.00;97912.91;5013144;28;20031;-59
2024/02/28 02:11:59;;;;;;;192.57;52.97;;;;;;;8.00;100.00;97910.56;5011308;28;20052;-58
2024/02/28 02:14:25;;;;;;;149.60;47.03;;;;;;;7.88;100.00;97916.56;5011197;28;20026;-61
2024/02/28 02:16:50;;;;;;;117.57;52.22;;;;;;;7.65;100.00;97922.47;5012239;28;20138;-59
2024/02/28 02:19:16;;;;;;;103.07;47.53;;;;;;;8.09;100.00;97920.97;5011540;28;20033;-58
2024/02/28 02:21:50;;;;;;;126.53;45.45;;;;;;;8.13;100.00;97919.31;5011759;28;20056;-59
2024/02/28 02:24:15;;;;;;;99.40;36.13;;;;;;;8.12;100.00;97926.19;5011539;28;20029;-60
2024/02/28 02:26:43;;;;;;;108.15;41.58;;;;;;;7.62;100.00;97931.06;5012396;28;20056;-59
2024/02/28 02:29:09;;;;;;;160.85;44.63;;;;;;;7.35;100.00;97936.88;5010069;28;20026;-60
2024/02/28 02:31:34;;;;;;;125.50;50.67;;;;;;;7.49;100.00;97936.97;5010527;28;20030;-59
2024/02/28 02:34:00;;;;;;;176.05;52.60;;;;;;;7.78;100.00;97944.09;5010690;28;20062;-61
2024/02/28 02:36:25;;;;;;;110.68;44.00;;;;;;;7.88;100.00;97953.69;5011797;28;20037;-59
2024/02/28 02:38:50;;;;;;;122.55;45.38;;;;;;;8.11;100.00;97968.50;5012992;28;20401;-60
2024/02/28 02:41:16;;;;;;;103.13;39.50;;;;;;;7.66;100.00;97968.19;5009742;28;20125;-58
2024/02/28 02:43:41;;;;;;;123.15;41.15;;;;;;;7.24;100.00;97975.59;5012003;28;20326;-60
2024/02/28 02:46:06;;;;;;;161.95;50.72;;;;;;;7.62;100.00;97971.59;5011494;28;20080;-61
2024/02/28 02:48:31;;;;;;;139.77;57.08;;;;;;;8.00;100.00;97972.75;5013047;28;20021;-60
2024/02/28 02:50:57;;;;;;;151.77;46.10;;;;;;;8.24;100.00;97977.19;5010518;28;20037;-61
2024/02/28 02:53:22;;;;;;;121.70;37.65;;;;;;;8.16;100.00;97974.56;5011793;28;20525;-58
2024/02/28 02:55:47;;;;;;;123.38;37.17;;;;;;;8.23;100.00;97974.63;5012582;28;20037;-58
2024/02/28 02:58:13;;;;;;;164.35;46.70;;;;;;;7.72;100.00;97982.91;5011929;28;20144;-58
2024/02/28 03:00:38;;;;;;;118.05;37.58;;;;;;;7.67;100.00;97975.97;5012055;28;20044;-59
2024/02/28 03:03:05;;;;;;;160.30;39.53;;;;;;;8.11;100.00;97984.06;5011143;28;20033;-59
2024/02/28 03:05:30;;;;;;;126.25;37.45;;;;;;;7.84;100.00;97988.19;5011915;28;20049;-60
2024/02/28 03:07:56;;;;;;;93.72;31.45;;;;;;;7.69;100.00;97994.97;5012606;28;20049;-59
2024/02/28 03:10:21;;;;;;;120.10;37.10;;;;;;;7.26;100.00;97994.56;5009364;28;21000;-59
2024/02/28 03:12:46;;;;;;;133.10;48.75;;;;;;;7.06;100.00;97995.25;5011816;28;20076;-61
2024/02/28 03:15:12;;;;;;;170.27;48.90;;;;;;;7.03;100.00;97993.50;5012279;28;20308;-58
2024/02/28 03:17:37;;;;;;;152.15;49.33;;;;;;;7.25;100.00;98004.06;5012183;28;20064;-62
2024/02/28 03:20:03;;;;;;;174.52;50.33;;;;;;;7.21;100.00;98007.47;5009355;28;20030;-62
2024/02/28 03:22:28;;;;;;;137.05;48.50;;;;;;;6.66;100.00;98008.56;5011397;28;20041;-60
2024/02/28 03:24:53;;;;;;;163.00;46.63;;;;;;;6.85;100.00;98014.84;5012041;28;20036;-58
2024/02/28 03:27:19;;;;;;;109.25;39.90;;;;;;;6.89;100.00;98020.91;5010654;28;20057;-60
2024/02/28 03:29:44;;;;;;;122.47;43.85;;;;;;;6.95;100.00;98020.09;5011807;28;20035;-58
2024/02/28 03:32:09;;;;;;;173.82;39.63;;;;;;;7.00;100.00;98027.06;5011342;28;20045;-58
2024/02/28 03:34:35;;;;;;;113.55;40.85;;;;;;;7.27;100.00;98032.50;5013968;28;20033;-60
2024/02/28 03:37:00;;;;;;;118.53;44.60;;;;;;;6.96;100.00;98038.22;5014476;28;20351;-58
2024/02/28 03:39:26;;;;;;;151.68;46.72;;;;;;;7.18;100.00;98032.41;5015585;28;20086;-58
2024/02/28 03:41:51;;;;;;;135.38;43.72;;;;;;;7.02;100.00;98037.44;5013039;28;20508;-61
2024/02/28 03:44:16;;;;;;;149.48;43.58;;;;;;;7.21;100.00;98046.28;5013329;28;20470;-59
2024/02/28 03:46:42;;;;;;;130.45;46.80;;;;;;;7.25;100.00;98040.28;5015315;28;20099;-58
2024/02/28 03:49:07;;;;;;;161.88;45.28;;;;;;;7.35;100.00;98051.56;5014921;28;20483;-58
2024/02/28 03:51:39;;;;;;;125.60;44.20;;;;;;;7.11;100.00;98047.00;5015102;28;20045;-59
2024/02/28 03:54:04;;;;;;;174.50;48.20;;;;;;;6.97;100.00;98047.72;5014832;28;20029;-61
2024/02/28 03:56:30;;;;;;;105.13;39.65;;;;;;;7.18;100.00;98055.69;5015242;28;20038;-59
2024/02/28 03:58:56;;;;;;;126.82;45.60;;;;;;;7.49;100.00;98059.50;5017073;28;20029;-59
2024/02/28 04:01:21;;;;;;;130.40;42.88;;;;;;;7.50;100.00;98065.53;5012663;28;20041;-61
2024/02/28 04:03:46;;;;;;;119.00;45.35;;;;;;;7.68;100.00;98068.31;5016042;28;20032;-59
2024/02/28 04:06:11;;;;;;;153.93;45.63;;;;;;;8.02;100.00;98072.06;5013763;28;20044;-59
2024/02/28 04:08:37;;;;;;;139.38;47.40;;;;;;;7.72;100.00;98076.13;5015369;28;20298;-58
2024/02/28 04:11:03;;;;;;;155.07;44.60;;;;;;;7.75;100.00;98074.41;5013230;28;20045;-59
2024/02/28 04:13:28;;;;;;;131.90;41.00;;;;;;;7.38;100.00;98067.16;5013686;28;20026;-59
2024/02/28 04:15:54;;;;;;;147.23;48.00;;;;;;;7.68;100.00;98070.91;5012976;28;20053;-59
2024/02/28 04:18:19;;;;;;;159.75;42.88;;;;;;;7.24;100.00;98079.91;5014618;28;20029;-58
2024/02/28 04:20:44;;;;;;;125.50;39.63;;;;;;;7.54;100.00;98077.66;5013970;28;20052;-58
2024/02/28 04:23:10;;;;;;;164.77;51.83;;;;;;;7.56;100.00;98081.13;5013078;28;20336;-61
2024/02/28 04:25:35;;;;;;;124.22;47.85;;;;;;;7.54;100.00;98075.09;5015213;28;20033;-58
2024/02/28 04:28:01;;;;;;;117.85;44.42;;;;;;;7.53;100.00;98073.31;5015235;28;20256;-60
2024/02/28 04:30:27;;;;;;;153.63;45.42;;;;;;;7.67;100.00;98071.75;5013202;28;20483;-60
2024/02/28 04:32:53;;;;;;;131.30;50.65;;;;;;;7.59;100.00;98067.34;5014913;28;20116;-61
2024/02/28 04:35:19;;;;;;;157.15;44.95;;;;;;;7.26;100.00;98074.78;5013312;28;20027;-61
2024/02/28 04:37:45;;;;;;;115.60;42.97;;;;;;;7.25;100.00;98071.34;5014719;28;20025;-59
2024/02/28 04:40:11;;;;;;;158.45;50.13;;;;;;;7.64;100.00;98079.47;5012101;28;20595;-58
2024/02/28 04:42:37;;;;;;;135.90;42.03;;;;;;;7.37;100.00;98078.34;5013979;28;20948;-60
2024/02/28 04:45:03;;;;;;;122.97;41.72;;;;;;;7.65;100.00;98070.84;5012836;28;20255;-57
2024/02/28 04:47:29;;;;;;;124.60;39.88;;;;;;;7.53;100.00;98075.91;5013349;28;20524;-62
2024/02/28 04:49:54;;;;;;;204.65;84.03;;;;;;;7.61;100.00;98079.44;5013409;28;20164;-61
2024/02/28 04:52:20;;;;;;;154.25;47.38;;;;;;;7.47;100.00;98081.03;5013330;28;20506;-59
2024/02/28 04:54:45;;;;;;;103.43;34.85;;;;;;;7.25;100.00;98083.38;5014682;28;20136;-59
2024/02/28 04:57:10;;;;;;;176.45;52.58;;;;;;;7.30;100.00;98086.88;5012797;28;20045;-58
2024/02/28 04:59:36;;;;;;;108.63;41.50;;;;;;;6.81;100.00;98082.84;5013830;28;20112;-59
2024/02/28 05:02:02;;;;;;;158.48;46.50;;;;;;;6.87;100.00;98088.09;5013292;28;20045;-60
2024/02/28 05:04:27;;;;;;;150.77;44.13;;;;;;;7.18;100.00;98097.09;5012047;28;20051;-59
2024/02/28 05:06:52;;;;;;;114.45;43.47;;;;;;;7.38;100.00;98092.13;5013983;28;20524;-58
2024/02/28 05:09:17;;;;;;;145.52;45.33;;;;;;;7.29;100.00;98092.91;5013712;28;20033;-59
2024/02/28 05:11:44;;;;;;;158.35;52.92;;;;;;;7.27;100.00;98097.19;5012578;28;20033;-59
2024/02/28 05:14:10;;;;;;;146.75;37.85;;;;;;;7.19;100.00;98096.25;5012037;28;20026;-61
2024/02/28 05:16:36;;;;;;;115.45;43.00;;;;;;;7.32;100.00;98092.09;5013030;28;20045;-59
2024/02/28 05:19:01;;;;;;;157.77;54.22;;;;;;;7.35;100.00;98092.13;5013602;28;20079;-59
2024/02/28 05:21:27;;;;;;;125.75;40.17;;;;;;;7.18;100.00;98095.38;5012118;28;20459;-59
2024/02/28 05:23:52;;;;;;;112.50;43.45;;;;;;;7.11;100.00;98088.38;5014186;28;20362;-58
2024/02/28 05:26:17;;;;;;;185.95;47.38;;;;;;;7.22;100.00;98096.28;5011079;28;20036;-62
2024/02/28 05:28:43;;;;;;;111.95;54.10;;;;;;;7.13;100.00;98097.91;5014109;28;20044;-59
2024/02/28 05:31:24;;;;;;;130.82;42.63;;;;;;;7.18;100.00;98100.56;5011787;28;20211;-62
2024/02/28 05:33:56;;;;;;;109.07;41.70;;;;;;;7.53;100.00;98100.09;5013279;28;20060;-61
2024/02/28 05:36:24;;;;;;;154.57;44.58;;;;;;;7.51;100.00;98091.44;5011377;28;20041;-59
2024/02/28 05:38:50;;;;;;;140.98;39.45;;;;;;;7.66;100.00;98098.50;5012920;28;20033;-59
2024/02/28 05:41:17;;;;;;;154.43;47.85;;;;;;;7.45;100.00;98095.69;5010408;28;20060;-61
2024/02/28 05:43:42;;;;;;;134.55;46.90;;;;;;;7.57;100.00;98100.13;5011836;28;20033;-58
2024/02/28 05:46:08;;;;;;;149.38;48.95;;;;;;;7.33;100.00;98089.53;5011338;28;20320;-60
2024/02/28 05:48:33;;;;;;;123.60;43.75;;;;;;;6.97;100.00;98095.97;5012926;28;20022;-61
2024/02/28 05:51:00;;;;;;;167.43;45.72;;;;;;;7.14;100.00;98099.66;5011953;28;20124;-58
2024/02/28 05:53:26;;;;;;;183.02;48.50;;;;;;;7.48;100.00;98095.69;5011204;28;20029;-59
2024/02/28 05:55:53;;;;;;;124.65;46.90;;;;;;;7.37;100.00;98099.06;5012953;28;20037;-59
2024/02/28 05:58:19;;;;;;;174.95;44.33;;;;;;;7.59;100.00;98106.16;5011219;28;20037;-59
2024/02/28 06:00:44;;;;;;;121.70;59.10;;;;;;;7.98;100.00;98110.00;5011537;28;20409;-58
2024/02/28 06:03:09;;;;;;;125.85;48.00;;;;;;;7.35;100.00;98115.41;5011591;28;20388;-59
2024/02/28 06:05:35;;;;;;;142.23;48.80;;;;;;;7.32;100.00;98123.13;5012725;28;20234;-59
2024/02/28 06:08:00;;;;;;;132.65;41.08;;;;;;;7.09;100.00;98131.50;5012866;28;20029;-60
2024/02/28 06:10:25;;;;;;;161.13;44.80;;;;;;;6.88;100.00;98127.75;5011061;28;20025;-57
2024/02/28 06:12:51;;;;;;;141.65;48.42;;;;;;;7.27;100.00;98136.88;5011722;28;20038;-58
2024/02/28 06:15:17;;;;;;;131.98;42.85;;;;;;;7.28;100.00;98135.19;5011906;28;20136;-57
2024/02/28 06:17:42;;;;;;;123.13;38.28;;;;;;;7.27;100.00;98134.28;5013683;28;20507;-57
2024/02/28 06:20:08;;;;;;;150.70;42.67;;;;;;;7.08;100.00;98128.03;5011847;28;20025;-57
2024/02/28 06:22:33;;;;;;;123.43;43.95;;;;;;;7.50;100.00;98138.00;5010474;28;20037;-59
2024/02/28 06:24:58;;;;;;;116.47;43.05;;;;;;;7.59;100.00;98148.47;5013319;28;20044;-57
2024/02/28 06:27:24;;;;;;;215.13;49.13;;;;;;;7.46;100.00;98142.28;5010807;28;20033;-57
2024/02/28 06:29:49;;;;;;;138.27;45.90;;;;;;;7.68;100.00;98145.09;5012622;28;20037;-56
2024/02/28 06:32:14;;;;;;;141.55;43.03;;;;;;;7.86;100.00;98159.09;5010903;28;20049;-58
2024/02/28 06:34:41;;;;;;;159.63;48.72;;;;;;;7.65;100.00;98163.22;5013124;28;20445;-59
2024/02/28 06:37:07;;;;;;;114.25;40.10;;;;;;;7.31;100.00;98166.25;5012221;28;20038;-58
2024/02/28 06:39:32;;;;;;;124.35;45.92;;;;;;;7.43;100.00;98174.16;5011954;28;20449;-61
2024/02/28 06:41:57;;;;;;;171.35;44.05;;;;;;;7.98;100.00;98169.56;5011449;28;20041;-59
2024/02/28 06:44:23;;;;;;;152.45;46.40;;;;;;;7.94;100.00;98179.03;5011198;28;20021;-59
2024/02/28 06:46:48;;;;;;;97.70;38.58;;;;;;;7.93;100.00;98190.28;5012631;28;20087;-59
2024/02/28 06:49:13;;;;;;;173.82;46.22;;;;;;;8.18;100.00;98185.34;5011016;28;20094;-57
2024/02/28 06:51:39;;;;;;;136.43;51.88;;;;;;;8.10;100.00;98186.97;5011974;28;20041;-58
2024/02/28 06:54:04;;;;;;;145.75;54.28;;;;;;;8.37;100.00;98193.25;5010742;28;20029;-59
2024/02/28 06:56:30;;;;;;;157.75;40.40;;;;;;;7.97;100.00;98192.91;5009660;28;20053;-58
2024/02/28 06:58:55;;;;;;;128.63;39.15;;;;;;;7.57;100.00;98201.06;5013042;28;20424;-58
2024/02/28 07:01:21;;;;;;;155.18;45.78;;;;;;;7.17;100.00;98202.31;5008393;28;20132;-60
2024/02/28 07:03:46;;;;;;;146.77;42.20;;;;;;;6.97;100.00;98204.56;5010904;28;20032;-59
2024/02/28 07:06:11;;;;;;;106.22;43.72;;;;;;;6.96;100.00;98202.84;5010824;28;20811;-58
2024/02/28 07:08:37;;;;;;;121.07;37.22;;;;;;;6.81;100.00;98217.31;5011795;28;20485;-60
2024/02/28 07:11:02;;;;;;;160.48;46.85;;;;;;;6.68;100.00;98218.81;5010856;28;20442;-61
2024/02/28 07:13:28;;;;;;;165.05;43.85;;;;;;;6.62;100.00;98221.31;5010762;28;20389;-58
2024/02/28 07:15:57;;;;;;;110.70;37.45;;;;;;;6.56;100.00;98229.81;5011841;28;20045;-58
2024/02/28 07:18:25;;;;;;;194.75;76.22;;;;;;;6.57;100.00;98222.94;5009510;28;20509;-58
2024/02/28 07:20:51;;;;;;;103.70;38.80;;;;;;;6.71;100.00;98236.97;5010965;28;20472;-59
2024/02/28 07:23:17;;;;;;;137.80;43.08;;;;;;;7.09;100.00;98235.81;5008993;28;20117;-59
2024/02/28 07:25:42;;;;;;;132.45;41.45;;;;;;;7.15;100.00;98240.19;5011615;28;20046;-59
2024/02/28 07:28:08;;;;;;;125.75;41.60;;;;;;;6.96;100.00;98244.22;5012025;28;20618;-60
2024/02/28 07:30:33;;;;;;;124.07;42.92;;;;;;;6.97;100.00;98240.78;5009799;28;20286;-60
2024/02/28 07:32:58;;;;;;;119.97;42.35;;;;;;;6.99;100.00;98239.09;5011038;28;20246;-61
2024/02/28 07:35:24;;;;;;;153.88;40.20;;;;;;;7.78;100.00;98244.47;5009717;28;20501;-59
2024/02/28 07:37:49;;;;;;;115.63;47.15;;;;;;;7.53;100.00;98246.75;5012547;28;20040;-62
2024/02/28 07:40:15;;;;;;;101.70;40.15;;;;;;;7.27;100.00;98250.72;5010516;28;20445;-61
2024/02/28 07:42:40;;;;;;;123.95;44.38;;;;;;;7.86;100.00;98255.78;5011625;28;20455;-60
2024/02/28 07:45:08;;;;;;;111.72;47.60;;;;;;;7.93;100.00;98260.19;5011181;28;20049;-61
2024/02/28 07:47:33;;;;;;;109.22;42.22;;;;;;;8.01;100.00;98260.28;5011055;28;20021;-59
2024/02/28 07:49:59;;;;;;;103.50;42.30;;;;;;;7.98;100.00;98274.94;5012419;28;20475;-59
2024/02/28 07:52:24;;;;;;;153.23;45.30;;;;;;;7.63;100.00;98273.63;5009991;28;20045;-58
2024/02/28 07:54:49;;;;;;;114.75;45.75;;;;;;;8.22;100.00;98274.31;5012130;28;20049;-59
2024/02/28 07:57:15;;;;;;;91.75;44.85;;;;;;;8.60;100.00;98283.38;5010940;28;20128;-58
2024/02/28 07:59:44;;;;;;;126.38;41.10;;;;;;;8.27;100.00;98279.53;5004178;28;20029;-59
2024/02/28 08:02:11;;;;;;;126.28;44.05;;;;;;;8.61;100.00;98287.69;5011908;28;20286;-62
2024/02/28 08:04:37;;;;;;;89.00;37.45;;;;;;;8.63;100.00;98272.16;5010922;28;20565;-57
2024/02/28 08:07:03;;;;;;;117.47;38.05;;;;;;;8.67;100.00;98273.91;5011280;28;20343;-59
2024/02/28 08:09:28;;;;;;;156.93;45.85;;;;;;;8.32;100.00;98270.97;5010588;28;20234;-59
2024/02/28 08:11:54;;;;;;;133.30;40.50;;;;;;;8.36;100.00;98277.06;5010569;28;20049;-58
2024/02/28 08:14:19;;;;;;;152.23;41.53;;;;;;;7.88;100.00;98274.81;5010486;28;20033;-58
2024/02/28 08:16:44;;;;;;;112.18;45.65;;;;;;;8.17;100.00;98278.59;5012184;28;20029;-59
2024/02/28 08:19:10;;;;;;;113.68;51.33;;;;;;;8.93;100.00;98281.94;5010947;28;20390;-59
2024/02/28 08:21:35;;;;;;;153.10;45.50;;;;;;;8.82;100.00;98284.44;5009648;28;22025;-59
2024/02/28 08:24:04;;;;;;;114.05;37.78;;;;;;;8.46;100.00;98285.78;5014536;28;20033;-60
2024/02/28 08:26:30;;;;;;;150.23;36.78;;;;;;;8.52;100.00;98283.25;5012742;28;20672;-57
2024/02/28 08:28:56;;;;;;;154.38;47.17;;;;;;;8.38;100.00;98296.09;5014944;28;20041;-58
2024/02/28 08:31:21;;;;;;;147.85;40.28;;;;;;;8.58;100.00;98298.91;5012772;28;20488;-60
2024/02/28 08:33:46;;;;;;;97.10;45.92;;;;;;;9.02;100.00;98301.88;5014956;28;20037;-58
2024/02/28 08:36:12;;;;;;;134.40;46.88;;;;;;;8.81;100.00;98306.03;5014885;28;20041;-61
2024/02/28 08:38:38;;;;;;;110.05;35.03;;;;;;;8.46;100.00;98315.19;5013549;28;20095;-60
2024/02/28 08:41:04;;;;;;;120.50;39.22;;;;;;;8.58;100.00;98311.88;5014325;28;20049;-58
2024/02/28 08:43:30;;;;;;;193.30;40.53;;;;;;;8.18;100.00;98309.72;5013036;28;20200;-58
2024/02/28 08:45:55;;;;;;;154.82;97.15;;;;;;;8.53;100.00;98308.38;5015089;28;20077;-58
2024/02/28 08:48:20;;;;;;;122.22;42.83;;;;;;;8.87;100.00;98305.19;5012990;28;20450;-58
2024/02/28 08:50:46;;;;;;;130.30;38.03;;;;;;;8.24;100.00;98313.22;5013561;28;20049;-61
2024/02/28 08:53:11;;;;;;;103.53;46.80;;;;;;;8.68;100.00;98315.41;5014474;28;20017;-59
2024/02/28 08:55:36;;;;;;;155.63;40.58;;;;;;;8.15;100.00;98317.44;5012990;28;20132;-59
2024/02/28 08:58:02;;;;;;;140.45;42.65;;;;;;;8.65;100.00;98320.56;5015094;28;20073;-58
2024/02/28 09:00:27;;;;;;;156.80;44.55;;;;;;;8.33;100.00;98326.28;5013004;28;20017;-59
2024/02/28 09:02:52;;;;;;;110.75;36.42;;;;;;;8.18;100.00;98325.25;5014369;28;20037;-59
2024/02/28 09:05:18;;;;;;;132.90;47.50;;;;;;;8.70;100.00;98328.41;5014380;28;20414;-59
2024/02/28 09:07:43;;;;;;;106.65;37.20;;;;;;;8.75;100.00;98336.25;5013873;28;20040;-59
2024/02/28 09:10:09;;;;;;;114.82;40.33;;;;;;;8.76;100.00;98344.00;5011439;28;20040;-60
2024/02/28 09:12:34;;;;;;;161.43;35.92;;;;;;;8.36;100.00;98328.91;5012264;28;20021;-58
2024/02/28 09:15:00;;;;;;;124.43;39.45;;;;;;;8.79;100.00;98335.38;5014281;28;20091;-59
2024/02/28 09:17:25;;;;;;;161.02;44.53;;;;;;;8.69;100.00;98337.91;5012787;28;20413;-58
2024/02/28 09:19:52;;;;;;;157.85;43.67;;;;;;;8.63;100.00;98332.66;5013402;28;20108;-59
2024/02/28 09:22:17;;;;;;;98.65;34.38;;;;;;;8.50;100.00;98333.38;5012710;28;20072;-60
2024/02/28 09:24:43;;;;;;;96.00;43.67;;;;;;;8.78;100.00;98334.53;5013004;28;20075;-59
2024/02/28 09:27:08;;;;;;;135.80;44.95;;;;;;;8.99;100.00;98333.00;5013050;28;20041;-59
2024/02/28 09:29:34;;;;;;;159.60;35.00;;;;;;;8.50;100.00;98331.63;5012041;28;20110;-58
2024/02/28 09:31:59;;;;;;;150.82;41.78;;;;;;;8.65;100.00;98338.72;5012834;28;20050;-58
2024/02/28 09:34:25;;;;;;;172.50;42.63;;;;;;;8.68;100.00;98338.75;5013202;28;20032;-58
2024/02/28 09:36:50;;;;;;;103.57;45.83;;;;;;;8.95;100.00;98339.88;5014068;28;20056;-59
2024/02/28 09:39:16;;;;;;;105.22;35.58;;;;;;;8.75;100.00;98331.91;5014292;28;20064;-60
2024/02/28 09:41:41;;;;;;;130.55;32.47;;;;;;;8.28;100.00;98340.91;5011299;28;20273;-58
2024/02/28 09:44:07;;;;;;;121.95;43.15;;;;;;;8.75;100.00;98336.25;5014000;28;20457;-59
2024/02/28 09:46:36;;;;;;;157.95;49.05;;;;;;;9.24;100.00;98341.84;5011910;28;20026;-59
2024/02/28 09:49:04;;;;;;;117.53;32.50;;;;;;;8.46;100.00;98338.50;5013507;28;20036;-58
2024/02/28 09:51:33;;;;;;;173.68;64.45;;;;;;;8.38;100.00;98332.38;5010885;28;20037;-60
2024/02/28 09:54:00;;;;;;;160.93;94.80;;;;;;;8.54;100.00;98332.56;5013196;28;20029;-59
2024/02/28 09:56:26;;;;;;;137.43;36.75;;;;;;;8.53;100.00;98331.69;5010810;28;20378;-58
2024/02/28 09:58:52;;;;;;;132.23;78.53;;;;;;;8.67;100.00;98330.97;5013575;28;20033;-59
2024/02/28 10:01:20;;;;;;;199.77;125.88;;;;;;;7.91;100.00;98331.81;5012392;28;20128;-60
2024/02/28 10:03:47;;;;;;;197.55;151.55;;;;;;;6.65;100.00;98340.25;5011406;28;20330;-60
2024/02/28 10:06:13;;;;;;;191.32;134.55;;;;;;;6.42;100.00;98345.00;5011521;28;20044;-58
2024/02/28 10:08:39;;;;;;;237.10;87.07;;;;;;;6.43;100.00;98351.91;5011745;28;20033;-59
2024/02/28 10:11:05;;;;;;;158.27;61.75;;;;;;;6.43;100.00;98346.72;5010774;28;20049;-59
2024/02/28 10:13:31;;;;;;;217.10;77.93;;;;;;;6.32;100.00;98357.75;5010845;28;20097;-59
2024/02/28 10:15:56;;;;;;;251.82;144.00;;;;;;;6.40;100.00;98357.00;5011152;28;20038;-58
2024/02/28 10:18:21;;;;;;;165.95;65.68;;;;;;;6.68;100.00;98353.22;5012885;28;20451;-60
2024/02/28 10:20:47;;;;;;;167.85;93.80;;;;;;;7.03;100.00;98359.88;5010802;28;20041;-58
2024/02/28 10:23:13;;;;;;;218.77;124.80;;;;;;;7.05;100.00;98360.75;5011693;28;20025;-59
2024/02/28 10:25:46;;;;;;;239.77;150.38;;;;;;;7.25;100.00;98357.63;5010884;28;20561;-58
2024/02/28 10:28:13;;;;;;;167.13;91.75;;;;;;;7.20;100.00;98372.22;5013210;28;20747;-58
2024/02/28 10:30:45;;;;;;;204.48;41.10;;;;;;;7.38;100.00;98377.69;5009938;28;20099;-60
2024/02/28 10:33:12;;;;;;;102.28;22.50;;;;;;;8.49;100.00;98375.72;5013054;28;20034;-58
2024/02/28 10:35:38;;;;;;;152.23;34.03;;;;;;;8.73;100.00;98373.38;5009165;28;20390;-59
2024/02/28 10:38:04;;;;;;;109.50;29.73;;;;;;;8.81;100.00;98372.59;5003678;28;20054;-58
2024/02/28 10:40:29;;;;;;;138.38;33.38;;;;;;;8.96;100.00;98367.56;5010277;28;20528;-58
2024/02/28 10:42:57;;;;;;;111.88;21.60;;;;;;;8.91;100.00;98376.16;5013221;28;20026;-61
2024/02/28 10:45:25;;;;;;;88.82;21.35;;;;;;;8.70;100.00;98364.72;5013079;28;20021;-58
2024/02/28 10:47:51;;;;;;;92.05;26.48;;;;;;;8.83;100.00;98358.78;5011945;28;20496;-58
2024/02/28 10:50:17;;;;;;;99.25;19.33;;;;;;;9.03;100.00;98357.25;5013067;28;20025;-59
2024/02/28 10:52:49;;;;;;;95.78;22.67;;;;;;;9.05;100.00;98351.19;5012724;28;20029;-59
2024/02/28 10:55:25;;;;;;;96.35;28.20;;;;;;;9.37;100.00;98347.13;5013426;28;20095;-61
2024/02/28 10:57:58;;;;;;;76.47;18.38;;;;;;;8.93;100.00;98346.78;5014614;28;20065;-58
2024/02/28 11:00:23;;;;;;;85.90;16.88;;;;;;;9.20;100.00;98341.78;5012038;28;20567;-58
2024/02/28 11:02:49;;;;;;;100.00;23.35;;;;;;;9.20;100.00;98345.25;5012700;28;20086;-60